createdAt,value
2019-02-12T00:01:02.822Z,15.78
2019-02-12T00:03:35.072Z,9.23
2019-02-12T00:06:07.179Z,6.30
2019-02-12T00:08:38.983Z,8.28
2019-02-12T00:11:10.852Z,5.47
2019-02-12T00:13:42.689Z,5.58
2019-02-12T00:16:14.555Z,7.33
2019-02-12T00:18:46.604Z,4.92
2019-02-12T00:21:18.496Z,8.40
2019-02-12T00:23:50.627Z,8.13
2019-02-12T00:26:22.495Z,9.00
2019-02-12T00:28:54.552Z,7.80
2019-02-12T00:31:26.530Z,7.90
2019-02-12T00:33:58.545Z,7.22
2019-02-12T00:36:30.958Z,8.55
2019-02-12T00:39:02.939Z,11.18
2019-02-12T00:41:36.476Z,8.33
2019-02-12T00:44:08.277Z,7.20
2019-02-12T00:46:40.208Z,5.65
2019-02-12T00:49:11.932Z,5.30
2019-02-12T00:51:45.009Z,5.30
2019-02-12T00:54:16.982Z,4.95
2019-02-12T00:56:49.094Z,4.65
2019-02-12T00:59:21.105Z,4.37
2019-02-12T01:01:53.765Z,5.15
2019-02-12T01:04:25.846Z,11.70
2019-02-12T01:06:57.685Z,11.35
2019-02-12T01:09:29.494Z,6.28
2019-02-12T01:12:01.680Z,4.08
2019-02-12T01:14:33.858Z,4.90
2019-02-12T01:17:05.797Z,7.70
2019-02-12T01:19:38.819Z,17.45
2019-02-12T01:22:11.082Z,13.90
2019-02-12T01:24:43.249Z,10.27
2019-02-12T01:27:14.977Z,7.85
2019-02-12T01:29:46.909Z,4.50
2019-02-12T01:32:19.255Z,3.62
2019-02-12T01:34:51.297Z,6.33
2019-02-12T01:37:23.517Z,7.60
2019-02-12T01:39:55.673Z,18.17
2019-02-12T01:42:27.730Z,14.83
2019-02-12T01:44:59.629Z,9.88
2019-02-12T01:47:32.068Z,7.90
2019-02-12T01:50:04.207Z,8.25
2019-02-12T01:52:36.385Z,8.55
2019-02-12T01:55:08.694Z,6.17
2019-02-12T01:57:40.773Z,8.87
2019-02-12T02:00:15.378Z,8.43
2019-02-12T02:02:48.158Z,7.20
2019-02-12T02:05:20.120Z,6.97
2019-02-12T02:07:52.426Z,10.45
2019-02-12T02:10:27.516Z,9.18
2019-02-12T02:12:59.446Z,3.67
2019-02-12T02:15:32.516Z,6.03
2019-02-12T02:18:04.415Z,5.00
2019-02-12T02:31:31.339Z,6.28
2019-02-12T02:34:03.849Z,5.30
2019-02-12T02:36:35.802Z,6.20
2019-02-12T02:39:09.652Z,4.72
2019-02-12T02:41:43.736Z,3.05
2019-02-12T02:44:17.699Z,2.98
2019-02-12T02:46:51.678Z,3.98
2019-02-12T02:49:25.253Z,4.42
2019-02-12T02:51:58.891Z,4.15
2019-02-12T02:54:32.457Z,5.53
2019-02-12T02:57:06.073Z,5.62
2019-02-12T02:59:52.490Z,3.77
2019-02-12T03:02:38.647Z,4.97
2019-02-12T03:05:21.169Z,2.77
2019-02-12T03:07:54.840Z,2.77
2019-02-12T03:10:29.042Z,4.45
2019-02-12T03:13:03.938Z,7.08
2019-02-12T03:15:37.979Z,3.42
2019-02-12T03:18:12.052Z,3.65
2019-02-12T03:20:46.055Z,5.78
2019-02-12T03:23:20.061Z,2.10
2019-02-12T03:25:53.945Z,4.03
2019-02-12T03:28:27.891Z,4.60
2019-02-12T03:31:01.596Z,5.33
2019-02-12T03:33:35.348Z,4.37
2019-02-12T03:36:09.533Z,4.12
2019-02-12T03:38:43.654Z,2.98
2019-02-12T03:41:17.195Z,5.40
2019-02-12T03:43:50.878Z,6.17
2019-02-12T03:46:25.560Z,6.95
2019-02-12T03:48:58.908Z,7.87
2019-02-12T03:51:33.249Z,8.65
2019-02-12T03:54:07.827Z,7.92
2019-02-12T03:56:43.037Z,7.58
2019-02-12T03:59:29.944Z,1.65
2019-02-12T04:02:15.305Z,2.30
2019-02-12T04:05:01.235Z,13.48
2019-02-12T04:07:35.993Z,10.78
2019-02-12T04:10:10.986Z,4.53
2019-02-12T04:12:45.363Z,4.70
2019-02-12T04:15:19.924Z,34.40
2019-02-12T04:17:54.950Z,16.70
2019-02-12T04:20:30.083Z,22.98
2019-02-12T04:23:04.906Z,40.48
2019-02-12T04:25:40.161Z,4.22
2019-02-12T04:28:16.348Z,3.35
2019-02-12T04:30:52.937Z,2.92
2019-02-12T04:33:27.449Z,1.02
2019-02-12T04:36:01.763Z,2.87
2019-02-12T04:38:37.140Z,3.83
2019-02-12T04:41:11.774Z,3.70
2019-02-12T04:43:48.151Z,3.00
2019-02-12T04:46:24.190Z,5.80
2019-02-12T04:48:59.251Z,6.80
2019-02-12T04:51:34.553Z,4.53
2019-02-12T04:54:08.880Z,3.70
2019-02-12T04:56:43.034Z,8.53
2019-02-12T04:59:17.456Z,13.83
2019-02-12T05:01:52.469Z,14.80
2019-02-12T05:04:39.253Z,12.75
2019-02-12T05:07:25.704Z,15.75
2019-02-12T05:10:01.617Z,8.20
2019-02-12T05:12:35.804Z,9.53
2019-02-12T05:15:10.661Z,8.38
2019-02-12T05:17:44.253Z,9.93
2019-02-12T05:20:18.202Z,9.93
2019-02-12T05:22:52.315Z,9.88
2019-02-12T05:25:26.508Z,11.05
2019-02-12T05:28:00.383Z,8.90
2019-02-12T05:30:35.097Z,10.08
2019-02-12T05:33:10.505Z,9.85
2019-02-12T05:35:45.368Z,12.88
2019-02-12T05:38:20.381Z,12.00
2019-02-12T05:40:55.163Z,16.17
2019-02-12T05:43:28.972Z,20.43
2019-02-12T05:46:03.243Z,30.77
2019-02-12T05:48:37.327Z,42.17
2019-02-12T05:51:11.806Z,68.60
2019-02-12T05:53:48.415Z,44.15
2019-02-12T05:56:24.230Z,61.35
2019-02-12T05:58:58.185Z,56.18
2019-02-12T06:01:32.606Z,35.00
2019-02-12T06:04:15.759Z,93.17
2019-02-12T06:06:50.108Z,151.45
2019-02-12T06:09:28.883Z,168.40
2019-02-12T06:12:03.178Z,39.88
2019-02-12T06:14:37.355Z,23.30
2019-02-12T06:17:21.103Z,27.50
2019-02-12T06:19:55.770Z,26.42
2019-02-12T06:22:30.737Z,18.32
2019-02-12T06:25:08.023Z,12.30
2019-02-12T06:27:42.920Z,19.55
2019-02-12T06:30:17.814Z,25.57
2019-02-12T06:32:51.835Z,17.52
2019-02-12T06:35:25.953Z,15.35
2019-02-12T06:38:00.082Z,9.03
2019-02-12T06:40:33.894Z,11.93
2019-02-12T06:43:09.187Z,15.83
2019-02-12T06:45:42.699Z,14.85
2019-02-12T06:48:16.980Z,17.00
2019-02-12T06:50:52.034Z,13.05
2019-02-12T06:53:25.714Z,16.30
2019-02-12T06:56:01.047Z,9.58
2019-02-12T06:58:35.678Z,8.10
2019-02-12T07:01:10.340Z,12.33
2019-02-12T07:03:59.186Z,8.73
2019-02-12T07:07:18.789Z,14.80
2019-02-12T07:10:02.493Z,10.90
2019-02-12T07:13:10.915Z,7.72
2019-02-12T07:15:55.470Z,22.87
2019-02-12T07:18:49.576Z,14.90
2019-02-12T07:22:05.701Z,22.40
2019-02-12T07:25:36.549Z,14.83
2019-02-12T07:28:42.660Z,14.13
2019-02-12T07:32:12.287Z,33.30
2019-02-12T07:35:18.018Z,20.15
2019-02-12T07:38:32.150Z,16.20
2019-02-12T07:44:19.158Z,22.22
2019-02-12T07:47:19.380Z,17.23
2019-02-12T07:50:37.044Z,31.35
2019-02-12T07:53:39.755Z,26.00
2019-02-12T07:56:47.702Z,17.40
2019-02-12T07:59:44.434Z,25.30
2019-02-12T08:02:41.277Z,19.62
2019-02-12T08:05:57.698Z,16.45
2019-02-12T08:08:43.927Z,29.45
2019-02-12T08:12:17.695Z,19.77
2019-02-12T08:15:11.231Z,27.33
2019-02-12T08:18:02.607Z,32.08
2019-02-12T08:21:22.831Z,28.07
2019-02-12T08:24:36.783Z,13.28
2019-02-12T08:27:47.964Z,30.05
2019-02-12T08:30:51.644Z,35.00
2019-02-12T08:33:58.666Z,24.80
2019-02-12T08:36:52.142Z,30.48
2019-02-12T08:40:04.126Z,40.33
2019-02-12T08:43:06.056Z,26.50
2019-02-12T08:46:20.875Z,44.38
2019-02-12T08:49:36.159Z,11.40
2019-02-12T08:52:54.751Z,18.92
2019-02-12T08:56:01.943Z,24.65
2019-02-12T08:59:00.833Z,14.68
2019-02-12T09:02:14.236Z,30.00
2019-02-12T09:05:12.563Z,49.77
2019-02-12T09:08:28.294Z,42.90
2019-02-12T09:11:33.721Z,53.17
2019-02-12T09:14:26.237Z,20.70
2019-02-12T09:17:52.091Z,26.85
2019-02-12T09:20:57.220Z,21.20
2019-02-12T09:24:00.786Z,33.00
2019-02-12T09:26:57.385Z,36.98
2019-02-12T09:30:01.390Z,6.70
2019-02-12T09:36:09.152Z,4.70
2019-02-12T09:39:22.699Z,7.45
2019-02-12T09:42:15.798Z,12.93
2019-02-12T09:45:09.317Z,5.08
2019-02-12T09:48:01.605Z,7.10
2019-02-12T09:51:02.971Z,7.12
2019-02-12T09:54:20.497Z,4.12
2019-02-12T09:57:56.764Z,8.15
2019-02-12T10:00:55.933Z,11.78
2019-02-12T10:04:24.625Z,5.50
2019-02-12T10:07:22.557Z,6.50
2019-02-12T10:10:34.343Z,11.08
2019-02-12T10:13:33.189Z,57.60
2019-02-12T10:16:59.750Z,11.97
2019-02-12T10:20:06.755Z,12.30
2019-02-12T10:23:27.834Z,8.45
2019-02-12T10:26:08.632Z,9.55
2019-02-12T10:29:17.275Z,11.25
2019-02-12T10:32:10.167Z,11.30
2019-02-12T10:34:44.668Z,10.55
2019-02-12T10:37:18.810Z,12.40
2019-02-12T10:39:52.896Z,15.90
2019-02-12T10:42:27.964Z,20.62
2019-02-12T10:45:01.804Z,23.83
2019-02-12T10:47:36.124Z,29.42
2019-02-12T10:50:10.290Z,20.17
2019-02-12T10:52:45.510Z,9.73
2019-02-12T10:55:30.203Z,25.68
2019-02-12T10:58:11.954Z,10.35
2019-02-12T11:00:46.969Z,23.92
2019-02-12T11:03:23.107Z,18.00
2019-02-12T11:06:00.173Z,23.27
2019-02-12T11:08:38.260Z,19.55
2019-02-12T11:11:21.004Z,7.92
2019-02-12T11:13:56.384Z,26.95
2019-02-12T11:16:32.632Z,18.62
2019-02-12T11:19:04.888Z,44.10
2019-02-12T11:21:37.048Z,36.50
2019-02-12T11:24:12.796Z,12.43
2019-02-12T11:26:47.214Z,22.80
2019-02-12T11:29:19.385Z,7.72
2019-02-12T11:32:03.935Z,10.70
2019-02-12T11:34:35.902Z,9.70
2019-02-12T11:37:07.867Z,8.53
2019-02-12T11:39:39.856Z,17.77
2019-02-12T11:42:11.695Z,18.60
2019-02-12T11:44:43.568Z,10.28
2019-02-12T11:47:15.495Z,11.75
2019-02-12T11:49:49.133Z,13.22
2019-02-12T11:52:23.024Z,6.20
2019-02-12T11:55:09.820Z,7.25
2019-02-12T11:57:55.855Z,14.70
2019-02-12T12:00:41.295Z,10.98
2019-02-12T12:03:15.611Z,17.67
2019-02-12T12:05:49.988Z,19.25
2019-02-12T12:08:24.386Z,20.68
2019-02-12T12:10:58.738Z,12.70
2019-02-12T12:13:31.017Z,17.23
2019-02-12T12:16:04.485Z,15.40
2019-02-12T12:18:38.438Z,20.50
2019-02-12T12:21:12.260Z,18.40
2019-02-12T12:23:49.041Z,11.18
2019-02-12T12:26:21.636Z,12.82
2019-02-12T12:28:58.088Z,14.30
2019-02-12T12:31:34.084Z,11.75
2019-02-12T12:34:08.650Z,8.83
2019-02-12T12:36:43.266Z,14.25
2019-02-12T12:39:18.174Z,14.30
2019-02-12T12:41:53.772Z,7.70
2019-02-12T12:44:28.891Z,9.00
2019-02-12T12:47:04.982Z,11.12
2019-02-12T12:49:39.781Z,15.68
2019-02-12T12:52:13.996Z,17.07
2019-02-12T12:54:48.035Z,12.07
2019-02-12T12:57:21.459Z,19.60
2019-02-12T12:59:56.330Z,21.00
2019-02-12T13:02:31.768Z,13.55
2019-02-12T13:05:06.210Z,17.32
2019-02-12T13:07:40.201Z,13.80
2019-02-12T13:10:26.687Z,14.80
2019-02-12T13:13:12.774Z,19.65
2019-02-12T13:15:58.706Z,11.70
2019-02-12T13:18:40.877Z,15.32
2019-02-12T13:21:25.294Z,13.75
2019-02-12T13:23:59.679Z,16.52
2019-02-12T13:26:37.054Z,11.90
2019-02-12T13:29:12.434Z,13.58
2019-02-12T13:31:46.679Z,33.63
2019-02-12T13:34:21.173Z,12.88
2019-02-12T13:36:55.450Z,10.90
2019-02-12T13:39:30.100Z,12.35
2019-02-12T13:42:04.934Z,10.95
2019-02-12T13:44:40.194Z,11.80
2019-02-12T13:47:15.957Z,21.75
2019-02-12T13:49:52.074Z,12.80
2019-02-12T13:52:27.262Z,9.38
2019-02-12T13:55:01.603Z,36.93
2019-02-12T13:57:35.645Z,35.73
2019-02-12T14:00:11.761Z,42.20
2019-02-12T14:02:46.733Z,24.80
2019-02-12T14:05:21.998Z,23.55
2019-02-12T14:07:57.259Z,34.08
2019-02-12T14:10:41.599Z,27.90
2019-02-12T14:13:16.340Z,30.80
2019-02-12T14:15:51.111Z,23.25
2019-02-12T14:18:26.892Z,24.43
2019-02-12T14:21:01.322Z,15.65
2019-02-12T14:23:36.041Z,16.02
2019-02-12T14:26:11.197Z,13.30
2019-02-12T14:28:45.446Z,24.77
2019-02-12T14:31:19.410Z,11.83
2019-02-12T14:33:53.479Z,13.98
2019-02-12T14:36:28.759Z,16.37
2019-02-12T14:39:06.570Z,13.90
2019-02-12T14:41:41.539Z,32.83
2019-02-12T14:44:17.021Z,30.52
2019-02-12T14:46:51.144Z,21.77
2019-02-12T14:49:25.286Z,27.48
2019-02-12T14:51:59.665Z,16.82
2019-02-12T14:54:44.638Z,27.07
2019-02-12T14:57:32.210Z,32.98
2019-02-12T15:00:18.282Z,17.37
2019-02-12T15:03:04.740Z,19.73
2019-02-12T15:05:39.702Z,27.27
2019-02-12T15:08:14.202Z,21.25
2019-02-12T15:10:48.870Z,17.17
2019-02-12T15:13:23.767Z,24.40
2019-02-12T15:15:58.360Z,25.68
2019-02-12T15:18:32.997Z,17.70
2019-02-12T15:21:07.898Z,99.90
2019-02-12T15:23:42.665Z,90.30
2019-02-12T15:26:18.520Z,43.35
2019-02-12T15:28:52.150Z,67.70
2019-02-12T15:31:25.995Z,22.50
2019-02-12T15:34:01.234Z,27.32
2019-02-12T15:36:36.176Z,14.05
2019-02-12T15:39:10.255Z,18.62
2019-02-12T15:41:44.468Z,23.60
2019-02-12T15:44:19.232Z,28.52
2019-02-12T15:46:53.093Z,54.27
2019-02-12T22:51:07.211Z,12.68
2019-02-12T22:53:39.362Z,10.40
2019-02-12T22:56:12.235Z,14.33
2019-02-12T22:58:44.839Z,12.30
2019-02-12T23:01:17.176Z,9.53
2019-02-12T23:03:50.073Z,12.75
2019-02-12T23:06:23.313Z,14.58
2019-02-12T23:08:55.318Z,13.28
2019-02-12T23:11:27.630Z,12.90
2019-02-12T23:14:13.279Z,14.28
2019-02-12T23:16:58.804Z,10.25
2019-02-12T23:19:39.715Z,12.00
2019-02-12T23:22:14.503Z,13.78
2019-02-12T23:24:47.804Z,15.80
2019-02-12T23:27:19.962Z,12.88
2019-02-12T23:29:52.141Z,15.23
2019-02-12T23:32:24.068Z,13.40
2019-02-12T23:34:57.300Z,13.10
2019-02-12T23:37:30.043Z,12.45
2019-02-12T23:40:04.316Z,13.50
2019-02-12T23:42:38.271Z,10.48
2019-02-12T23:45:12.504Z,13.95
2019-02-12T23:47:46.490Z,15.25
2019-02-12T23:50:20.705Z,17.17
2019-02-12T23:52:54.280Z,13.32
2019-02-12T23:55:28.323Z,12.73
2019-02-12T23:58:06.027Z,20.25
